sensor_id;sensor_type;location;lat;lon;timestamp;pressure;altitude;pressure_sealevel;temperature
30001;BMP280;16845;48.670;9.000;2024-03-08T00:01:57;95289.31;;;5.64
30001;BMP280;16845;48.670;9.000;2024-03-08T00:04:23;95293.16;;;5.25
30001;BMP280;16845;48.670;9.000;2024-03-08T00:06:51;95284.56;;;5.49
30001;BMP280;16845;48.670;9.000;2024-03-08T00:09:20;95281.34;;;5.41
30001;BMP280;16845;48.670;9.000;2024-03-08T00:11:47;95289.75;;;5.34
30001;BMP280;16845;48.670;9.000;2024-03-08T00:14:13;95277.22;;;5.41
30001;BMP280;16845;48.670;9.000;2024-03-08T00:16:40;95279.59;;;5.49
30001;BMP280;16845;48.670;9.000;2024-03-08T00:19:06;95281.13;;;5.57
30001;BMP280;16845;48.670;9.000;2024-03-08T00:21:33;95283.00;;;5.42
30001;BMP280;16845;48.670;9.000;2024-03-08T00:24:01;95283.38;;;5.15
30001;BMP280;16845;48.670;9.000;2024-03-08T00:26:27;95278.91;;;5.39
30001;BMP280;16845;48.670;9.000;2024-03-08T00:28:54;95281.97;;;4.94
30001;BMP280;16845;48.670;9.000;2024-03-08T00:31:20;95272.41;;;5.29
30001;BMP280;16845;48.670;9.000;2024-03-08T00:33:47;95274.97;;;5.22
30001;BMP280;16845;48.670;9.000;2024-03-08T00:36:13;95272.72;;;5.02
30001;BMP280;16845;48.670;9.000;2024-03-08T00:38:40;95273.38;;;5.18
30001;BMP280;16845;48.670;9.000;2024-03-08T00:41:08;95266.47;;;5.38
30001;BMP280;16845;48.670;9.000;2024-03-08T00:43:34;95261.78;;;5.17
30001;BMP280;16845;48.670;9.000;2024-03-08T00:46:01;95265.09;;;5.16
30001;BMP280;16845;48.670;9.000;2024-03-08T00:48:27;95265.91;;;5.16
30001;BMP280;16845;48.670;9.000;2024-03-08T00:50:54;95256.38;;;4.86
30001;BMP280;16845;48.670;9.000;2024-03-08T00:53:20;95260.34;;;4.98
30001;BMP280;16845;48.670;9.000;2024-03-08T00:55:47;95263.03;;;4.83
30001;BMP280;16845;48.670;9.000;2024-03-08T00:58:15;95259.66;;;4.88
30001;BMP280;16845;48.670;9.000;2024-03-08T01:00:41;95246.50;;;4.79
30001;BMP280;16845;48.670;9.000;2024-03-08T01:03:08;95248.94;;;4.82
30001;BMP280;16845;48.670;9.000;2024-03-08T01:05:34;95248.22;;;4.75
30001;BMP280;16845;48.670;9.000;2024-03-08T01:08:01;95237.78;;;4.45
30001;BMP280;16845;48.670;9.000;2024-03-08T01:10:28;95241.88;;;4.47
30001;BMP280;16845;48.670;9.000;2024-03-08T01:12:54;95238.63;;;4.44
30001;BMP280;16845;48.670;9.000;2024-03-08T01:15:22;95237.31;;;4.84
30001;BMP280;16845;48.670;9.000;2024-03-08T01:17:49;95240.16;;;4.54
30001;BMP280;16845;48.670;9.000;2024-03-08T01:20:15;95228.38;;;4.71
30001;BMP280;16845;48.670;9.000;2024-03-08T01:22:42;95239.16;;;4.70
30001;BMP280;16845;48.670;9.000;2024-03-08T01:25:09;95230.41;;;4.36
30001;BMP280;16845;48.670;9.000;2024-03-08T01:27:35;95223.19;;;4.15
30001;BMP280;16845;48.670;9.000;2024-03-08T01:30:02;95218.25;;;4.12
30001;BMP280;16845;48.670;9.000;2024-03-08T01:32:30;95218.09;;;4.27
30001;BMP280;16845;48.670;9.000;2024-03-08T01:34:57;95216.53;;;4.17
30001;BMP280;16845;48.670;9.000;2024-03-08T01:37:24;95219.25;;;3.93
30001;BMP280;16845;48.670;9.000;2024-03-08T01:39:50;95213.13;;;4.26
30001;BMP280;16845;48.670;9.000;2024-03-08T01:42:17;95208.88;;;4.37
30001;BMP280;16845;48.670;9.000;2024-03-08T01:44:43;95216.84;;;3.87
30001;BMP280;16845;48.670;9.000;2024-03-08T01:47:10;95196.81;;;4.02
30001;BMP280;16845;48.670;9.000;2024-03-08T01:49:39;95194.13;;;4.22
30001;BMP280;16845;48.670;9.000;2024-03-08T01:52:06;95193.34;;;4.21
30001;BMP280;16845;48.670;9.000;2024-03-08T01:54:33;95189.69;;;4.49
30001;BMP280;16845;48.670;9.000;2024-03-08T01:56:59;95194.09;;;4.28
30001;BMP280;16845;48.670;9.000;2024-03-08T01:59:26;95187.81;;;4.69
30001;BMP280;16845;48.670;9.000;2024-03-08T02:01:55;95177.91;;;4.66
30001;BMP280;16845;48.670;9.000;2024-03-08T02:04:21;95178.53;;;4.12
30001;BMP280;16845;48.670;9.000;2024-03-08T02:06:49;95183.56;;;4.05
30001;BMP280;16845;48.670;9.000;2024-03-08T02:09:16;95168.59;;;4.12
30001;BMP280;16845;48.670;9.000;2024-03-08T02:11:42;95167.09;;;3.96
30001;BMP280;16845;48.670;9.000;2024-03-08T02:14:09;95160.41;;;4.04
30001;BMP280;16845;48.670;9.000;2024-03-08T02:16:36;95155.13;;;4.31
30001;BMP280;16845;48.670;9.000;2024-03-08T02:19:02;95150.16;;;4.31
30001;BMP280;16845;48.670;9.000;2024-03-08T02:21:30;95153.06;;;3.94
30001;BMP280;16845;48.670;9.000;2024-03-08T02:23:57;95149.91;;;3.78
30001;BMP280;16845;48.670;9.000;2024-03-08T02:26:23;95149.09;;;3.73
30001;BMP280;16845;48.670;9.000;2024-03-08T02:28:50;95149.22;;;3.64
30001;BMP280;16845;48.670;9.000;2024-03-08T02:31:16;95151.66;;;3.66
30001;BMP280;16845;48.670;9.000;2024-03-08T02:33:43;95150.78;;;3.71
30001;BMP280;16845;48.670;9.000;2024-03-08T02:36:10;95137.22;;;4.05
30001;BMP280;16845;48.670;9.000;2024-03-08T02:38:38;95136.63;;;3.84
30001;BMP280;16845;48.670;9.000;2024-03-08T02:41:05;95133.28;;;3.83
30001;BMP280;16845;48.670;9.000;2024-03-08T02:43:31;95131.75;;;3.73
30001;BMP280;16845;48.670;9.000;2024-03-08T02:45:58;95129.81;;;4.01
30001;BMP280;16845;48.670;9.000;2024-03-08T02:48:25;95124.97;;;3.89
30001;BMP280;16845;48.670;9.000;2024-03-08T02:50:51;95130.91;;;3.76
30001;BMP280;16845;48.670;9.000;2024-03-08T02:53:18;95122.72;;;3.63
30001;BMP280;16845;48.670;9.000;2024-03-08T02:55:47;95125.84;;;3.83
30001;BMP280;16845;48.670;9.000;2024-03-08T02:58:13;95129.94;;;3.90
30001;BMP280;16845;48.670;9.000;2024-03-08T03:00:40;95128.06;;;4.10
30001;BMP280;16845;48.670;9.000;2024-03-08T03:03:07;95122.03;;;4.32
30001;BMP280;16845;48.670;9.000;2024-03-08T03:05:34;95120.53;;;4.18
30001;BMP280;16845;48.670;9.000;2024-03-08T03:08:01;95122.06;;;4.26
30001;BMP280;16845;48.670;9.000;2024-03-08T03:10:27;95122.44;;;3.95
30001;BMP280;16845;48.670;9.000;2024-03-08T03:12:55;95117.03;;;3.54
30001;BMP280;16845;48.670;9.000;2024-03-08T03:15:22;95111.88;;;3.75
30001;BMP280;16845;48.670;9.000;2024-03-08T03:17:53;95117.78;;;3.65
30001;BMP280;16845;48.670;9.000;2024-03-08T03:20:20;95111.09;;;3.71
30001;BMP280;16845;48.670;9.000;2024-03-08T03:22:46;95103.59;;;3.77
30001;BMP280;16845;48.670;9.000;2024-03-08T03:25:13;95095.19;;;3.89
30001;BMP280;16845;48.670;9.000;2024-03-08T03:27:40;95104.31;;;3.88
30001;BMP280;16845;48.670;9.000;2024-03-08T03:30:09;95100.19;;;3.84
30001;BMP280;16845;48.670;9.000;2024-03-08T03:32:36;95098.56;;;3.83
30001;BMP280;16845;48.670;9.000;2024-03-08T03:35:03;95090.13;;;3.96
30001;BMP280;16845;48.670;9.000;2024-03-08T03:37:30;95095.41;;;3.71
30001;BMP280;16845;48.670;9.000;2024-03-08T03:39:57;95091.91;;;3.88
30001;BMP280;16845;48.670;9.000;2024-03-08T03:42:23;95087.78;;;3.86
30001;BMP280;16845;48.670;9.000;2024-03-08T03:44:50;95093.09;;;3.51
30001;BMP280;16845;48.670;9.000;2024-03-08T03:47:18;95089.50;;;3.79
30001;BMP280;16845;48.670;9.000;2024-03-08T03:49:44;95085.72;;;3.44
30001;BMP280;16845;48.670;9.000;2024-03-08T03:52:11;95092.31;;;3.45
30001;BMP280;16845;48.670;9.000;2024-03-08T03:54:37;95090.84;;;3.24
30001;BMP280;16845;48.670;9.000;2024-03-08T03:57:04;95088.13;;;3.54
30001;BMP280;16845;48.670;9.000;2024-03-08T03:59:34;95083.94;;;3.58
30001;BMP280;16845;48.670;9.000;2024-03-08T04:02:03;95083.13;;;3.57
30001;BMP280;16845;48.670;9.000;2024-03-08T04:04:31;95081.03;;;3.12
30001;BMP280;16845;48.670;9.000;2024-03-08T04:06:57;95080.84;;;3.35
30001;BMP280;16845;48.670;9.000;2024-03-08T04:09:24;95080.63;;;3.59
30001;BMP280;16845;48.670;9.000;2024-03-08T04:11:50;95076.59;;;3.46
30001;BMP280;16845;48.670;9.000;2024-03-08T04:14:17;95084.28;;;3.20
30001;BMP280;16845;48.670;9.000;2024-03-08T04:16:44;95080.81;;;3.38
30001;BMP280;16845;48.670;9.000;2024-03-08T04:19:10;95072.75;;;3.15
30001;BMP280;16845;48.670;9.000;2024-03-08T04:21:38;95075.25;;;3.15
30001;BMP280;16845;48.670;9.000;2024-03-08T04:24:07;95070.09;;;3.34
30001;BMP280;16845;48.670;9.000;2024-03-08T04:29:16;95075.00;;;3.42
30001;BMP280;16845;48.670;9.000;2024-03-08T04:31:42;95061.91;;;3.28
30001;BMP280;16845;48.670;9.000;2024-03-08T04:34:09;95060.31;;;3.22
30001;BMP280;16845;48.670;9.000;2024-03-08T04:36:35;95069.34;;;3.26
30001;BMP280;16845;48.670;9.000;2024-03-08T04:39:03;95063.47;;;3.36
30001;BMP280;16845;48.670;9.000;2024-03-08T04:41:29;95059.31;;;3.40
30001;BMP280;16845;48.670;9.000;2024-03-08T04:44:00;95064.25;;;3.41
30001;BMP280;16845;48.670;9.000;2024-03-08T04:46:28;95056.00;;;3.42
30001;BMP280;16845;48.670;9.000;2024-03-08T04:48:54;95056.91;;;3.31
30001;BMP280;16845;48.670;9.000;2024-03-08T04:51:21;95058.75;;;3.09
30001;BMP280;16845;48.670;9.000;2024-03-08T04:53:48;95055.31;;;3.27
30001;BMP280;16845;48.670;9.000;2024-03-08T05:01:32;95053.72;;;3.18
30001;BMP280;16845;48.670;9.000;2024-03-08T05:03:58;95051.16;;;3.27
30001;BMP280;16845;48.670;9.000;2024-03-08T05:06:31;95049.47;;;3.31
30001;BMP280;16845;48.670;9.000;2024-03-08T05:08:58;95046.31;;;3.15
30001;BMP280;16845;48.670;9.000;2024-03-08T05:11:24;95047.91;;;3.21
30001;BMP280;16845;48.670;9.000;2024-03-08T05:13:51;95047.03;;;3.28
30001;BMP280;16845;48.670;9.000;2024-03-08T05:16:17;95041.28;;;3.23
30001;BMP280;16845;48.670;9.000;2024-03-08T05:18:45;95040.44;;;3.27
30001;BMP280;16845;48.670;9.000;2024-03-08T05:21:12;95039.75;;;3.10
30001;BMP280;16845;48.670;9.000;2024-03-08T05:23:38;95040.88;;;2.74
30001;BMP280;16845;48.670;9.000;2024-03-08T05:26:05;95040.47;;;3.24
30001;BMP280;16845;48.670;9.000;2024-03-08T05:28:35;95039.59;;;3.28
30001;BMP280;16845;48.670;9.000;2024-03-08T05:31:01;95038.88;;;3.15
30001;BMP280;16845;48.670;9.000;2024-03-08T05:33:28;95044.53;;;3.26
30001;BMP280;16845;48.670;9.000;2024-03-08T05:35:56;95042.91;;;3.25
30001;BMP280;16845;48.670;9.000;2024-03-08T05:38:22;95045.41;;;3.22
30001;BMP280;16845;48.670;9.000;2024-03-08T05:40:49;95042.16;;;3.17
30001;BMP280;16845;48.670;9.000;2024-03-08T05:43:15;95048.84;;;3.09
30001;BMP280;16845;48.670;9.000;2024-03-08T05:45:42;95048.03;;;3.07
30001;BMP280;16845;48.670;9.000;2024-03-08T05:48:08;95038.06;;;3.15
30001;BMP280;16845;48.670;9.000;2024-03-08T05:50:35;95038.22;;;2.92
30001;BMP280;16845;48.670;9.000;2024-03-08T05:53:03;95042.34;;;2.96
30001;BMP280;16845;48.670;9.000;2024-03-08T05:55:30;95043.97;;;3.02
30001;BMP280;16845;48.670;9.000;2024-03-08T05:57:57;95035.53;;;3.18
30001;BMP280;16845;48.670;9.000;2024-03-08T06:00:23;95044.63;;;3.20
30001;BMP280;16845;48.670;9.000;2024-03-08T06:02:50;95037.97;;;3.24
30001;BMP280;16845;48.670;9.000;2024-03-08T06:05:17;95041.16;;;3.36
30001;BMP280;16845;48.670;9.000;2024-03-08T06:07:43;95046.94;;;3.35
30001;BMP280;16845;48.670;9.000;2024-03-08T06:10:11;95048.47;;;3.48
30001;BMP280;16845;48.670;9.000;2024-03-08T06:12:38;95048.31;;;3.63
30001;BMP280;16845;48.670;9.000;2024-03-08T06:15:05;95039.97;;;3.70
30001;BMP280;16845;48.670;9.000;2024-03-08T06:17:32;95033.94;;;3.92
30001;BMP280;16845;48.670;9.000;2024-03-08T06:20:02;95036.38;;;3.95
30001;BMP280;16845;48.670;9.000;2024-03-08T06:22:28;95040.53;;;3.95
30001;BMP280;16845;48.670;9.000;2024-03-08T06:24:55;95040.44;;;4.02
30001;BMP280;16845;48.670;9.000;2024-03-08T06:27:23;95026.19;;;4.16
30001;BMP280;16845;48.670;9.000;2024-03-08T06:29:49;95025.13;;;4.34
30001;BMP280;16845;48.670;9.000;2024-03-08T06:32:16;95030.22;;;4.23
30001;BMP280;16845;48.670;9.000;2024-03-08T06:34:42;95027.47;;;4.44
30001;BMP280;16845;48.670;9.000;2024-03-08T06:37:09;95029.00;;;4.53
30001;BMP280;16845;48.670;9.000;2024-03-08T06:39:36;95031.06;;;4.22
30001;BMP280;16845;48.670;9.000;2024-03-08T06:42:02;95032.72;;;4.23
30001;BMP280;16845;48.670;9.000;2024-03-08T06:44:30;95028.81;;;4.66
30001;BMP280;16845;48.670;9.000;2024-03-08T06:46:57;95033.34;;;4.39
30001;BMP280;16845;48.670;9.000;2024-03-08T06:49:26;95030.16;;;4.85
30001;BMP280;16845;48.670;9.000;2024-03-08T06:51:52;95032.88;;;5.23
30001;BMP280;16845;48.670;9.000;2024-03-08T06:54:19;95036.75;;;5.37
30001;BMP280;16845;48.670;9.000;2024-03-08T06:56:45;95029.41;;;5.31
30001;BMP280;16845;48.670;9.000;2024-03-08T06:59:12;95031.03;;;5.34
30001;BMP280;16845;48.670;9.000;2024-03-08T07:01:41;95029.06;;;5.51
30001;BMP280;16845;48.670;9.000;2024-03-08T07:04:07;95031.03;;;5.34
30001;BMP280;16845;48.670;9.000;2024-03-08T07:06:34;95024.63;;;5.66
30001;BMP280;16845;48.670;9.000;2024-03-08T07:09:00;95026.38;;;5.61
30001;BMP280;16845;48.670;9.000;2024-03-08T07:11:27;95025.50;;;5.64
30001;BMP280;16845;48.670;9.000;2024-03-08T07:13:54;95022.31;;;5.56
30001;BMP280;16845;48.670;9.000;2024-03-08T07:16:20;95011.91;;;5.83
30001;BMP280;16845;48.670;9.000;2024-03-08T07:18:51;95011.66;;;5.95
30001;BMP280;16845;48.670;9.000;2024-03-08T07:21:20;95015.81;;;5.49
30001;BMP280;16845;48.670;9.000;2024-03-08T07:23:47;95020.25;;;5.79
30001;BMP280;16845;48.670;9.000;2024-03-08T07:26:15;95014.31;;;5.86
30001;BMP280;16845;48.670;9.000;2024-03-08T07:28:41;95010.09;;;5.89
30001;BMP280;16845;48.670;9.000;2024-03-08T07:31:08;95009.84;;;6.03
30001;BMP280;16845;48.670;9.000;2024-03-08T07:33:34;95012.97;;;6.11
30001;BMP280;16845;48.670;9.000;2024-03-08T07:36:02;95010.50;;;6.11
30001;BMP280;16845;48.670;9.000;2024-03-08T07:38:29;94998.28;;;5.99
30001;BMP280;16845;48.670;9.000;2024-03-08T07:40:56;95002.69;;;5.41
30001;BMP280;16845;48.670;9.000;2024-03-08T07:43:22;95007.03;;;5.31
30001;BMP280;16845;48.670;9.000;2024-03-08T07:45:49;95008.50;;;5.87
30001;BMP280;16845;48.670;9.000;2024-03-08T07:48:15;95001.38;;;6.10
30001;BMP280;16845;48.670;9.000;2024-03-08T07:50:42;95014.06;;;5.07
30001;BMP280;16845;48.670;9.000;2024-03-08T07:53:10;95011.44;;;5.16
30001;BMP280;16845;48.670;9.000;2024-03-08T07:55:37;95005.88;;;5.47
30001;BMP280;16845;48.670;9.000;2024-03-08T07:58:04;95007.31;;;5.15
30001;BMP280;16845;48.670;9.000;2024-03-08T08:00:30;94993.34;;;5.97
30001;BMP280;16845;48.670;9.000;2024-03-08T08:03:01;94998.19;;;5.61
30001;BMP280;16845;48.670;9.000;2024-03-08T08:05:32;94999.69;;;5.24
30001;BMP280;16845;48.670;9.000;2024-03-08T08:08:23;94996.34;;;5.25
30001;BMP280;16845;48.670;9.000;2024-03-08T08:10:50;94989.53;;;5.36
30001;BMP280;16845;48.670;9.000;2024-03-08T08:13:17;94988.63;;;5.84
30001;BMP280;16845;48.670;9.000;2024-03-08T08:15:43;94986.59;;;5.60
30001;BMP280;16845;48.670;9.000;2024-03-08T08:18:12;94992.59;;;5.50
30001;BMP280;16845;48.670;9.000;2024-03-08T08:20:39;94979.53;;;5.83
30001;BMP280;16845;48.670;9.000;2024-03-08T08:23:08;94980.09;;;5.95
30001;BMP280;16845;48.670;9.000;2024-03-08T08:25:36;94976.66;;;6.01
30001;BMP280;16845;48.670;9.000;2024-03-08T08:28:03;94965.88;;;6.38
30001;BMP280;16845;48.670;9.000;2024-03-08T08:30:29;94980.03;;;6.38
30001;BMP280;16845;48.670;9.000;2024-03-08T08:32:56;94980.53;;;6.53
30001;BMP280;16845;48.670;9.000;2024-03-08T08:35:23;94983.53;;;6.66
30001;BMP280;16845;48.670;9.000;2024-03-08T08:37:50;94974.88;;;6.45
30001;BMP280;16845;48.670;9.000;2024-03-08T08:40:17;94973.84;;;5.73
30001;BMP280;16845;48.670;9.000;2024-03-08T08:42:45;94980.25;;;5.88
30001;BMP280;16845;48.670;9.000;2024-03-08T08:45:14;94971.81;;;5.95
30001;BMP280;16845;48.670;9.000;2024-03-08T08:47:43;94978.72;;;6.22
30001;BMP280;16845;48.670;9.000;2024-03-08T08:50:13;94969.81;;;6.50
30001;BMP280;16845;48.670;9.000;2024-03-08T08:52:40;94975.09;;;6.73
30001;BMP280;16845;48.670;9.000;2024-03-08T08:55:10;94971.72;;;6.74
30001;BMP280;16845;48.670;9.000;2024-03-08T08:57:39;94957.59;;;7.07
30001;BMP280;16845;48.670;9.000;2024-03-08T09:00:08;94961.88;;;7.34
30001;BMP280;16845;48.670;9.000;2024-03-08T09:02:37;94956.56;;;7.46
30001;BMP280;16845;48.670;9.000;2024-03-08T09:05:04;94955.00;;;7.12
30001;BMP280;16845;48.670;9.000;2024-03-08T09:07:31;94946.00;;;7.38
30001;BMP280;16845;48.670;9.000;2024-03-08T09:10:05;94945.44;;;7.27
30001;BMP280;16845;48.670;9.000;2024-03-08T09:12:35;94947.63;;;7.07
30001;BMP280;16845;48.670;9.000;2024-03-08T09:15:02;94951.28;;;6.60
30001;BMP280;16845;48.670;9.000;2024-03-08T09:17:30;94943.72;;;6.97
30001;BMP280;16845;48.670;9.000;2024-03-08T09:19:56;94947.16;;;7.25
30001;BMP280;16845;48.670;9.000;2024-03-08T09:22:24;94937.44;;;7.47
30001;BMP280;16845;48.670;9.000;2024-03-08T09:24:51;94940.22;;;7.04
30001;BMP280;16845;48.670;9.000;2024-03-08T09:27:18;94944.81;;;7.51
30001;BMP280;16845;48.670;9.000;2024-03-08T09:29:44;94942.09;;;7.28
30001;BMP280;16845;48.670;9.000;2024-03-08T09:32:11;94940.50;;;6.58
30001;BMP280;16845;48.670;9.000;2024-03-08T09:34:39;94927.81;;;7.33
30001;BMP280;16845;48.670;9.000;2024-03-08T09:37:05;94934.22;;;6.78
30001;BMP280;16845;48.670;9.000;2024-03-08T09:39:32;94933.66;;;7.32
30001;BMP280;16845;48.670;9.000;2024-03-08T09:41:59;94936.84;;;7.37
30001;BMP280;16845;48.670;9.000;2024-03-08T09:44:36;94932.88;;;6.98
30001;BMP280;16845;48.670;9.000;2024-03-08T09:47:04;94934.38;;;7.05
30001;BMP280;16845;48.670;9.000;2024-03-08T09:50:06;94935.94;;;7.08
30001;BMP280;16845;48.670;9.000;2024-03-08T09:52:59;94938.75;;;6.63
30001;BMP280;16845;48.670;9.000;2024-03-08T09:55:49;94930.50;;;6.61
30001;BMP280;16845;48.670;9.000;2024-03-08T09:58:20;94923.34;;;7.75
30001;BMP280;16845;48.670;9.000;2024-03-08T10:00:47;94921.44;;;7.84
30001;BMP280;16845;48.670;9.000;2024-03-08T10:03:14;94915.84;;;7.75
30001;BMP280;16845;48.670;9.000;2024-03-08T10:05:42;94920.66;;;7.52
30001;BMP280;16845;48.670;9.000;2024-03-08T10:08:09;94911.25;;;7.90
30001;BMP280;16845;48.670;9.000;2024-03-08T10:10:36;94919.06;;;6.87
30001;BMP280;16845;48.670;9.000;2024-03-08T10:13:05;94906.25;;;7.90
30001;BMP280;16845;48.670;9.000;2024-03-08T10:18:26;94905.63;;;7.53
30001;BMP280;16845;48.670;9.000;2024-03-08T10:21:09;94902.09;;;7.31
30001;BMP280;16845;48.670;9.000;2024-03-08T10:23:36;94896.44;;;7.84
30001;BMP280;16845;48.670;9.000;2024-03-08T10:26:13;94893.88;;;7.26
30001;BMP280;16845;48.670;9.000;2024-03-08T10:28:51;94895.13;;;7.12
30001;BMP280;16845;48.670;9.000;2024-03-08T10:31:19;94892.31;;;6.92
30001;BMP280;16845;48.670;9.000;2024-03-08T10:33:45;94889.81;;;6.92
30001;BMP280;16845;48.670;9.000;2024-03-08T10:36:14;94901.69;;;6.83
30001;BMP280;16845;48.670;9.000;2024-03-08T10:38:42;94886.19;;;7.64
30001;BMP280;16845;48.670;9.000;2024-03-08T10:41:10;94881.88;;;7.98
30001;BMP280;16845;48.670;9.000;2024-03-08T10:43:52;94881.19;;;7.64
30001;BMP280;16845;48.670;9.000;2024-03-08T10:46:30;94876.97;;;7.95
30001;BMP280;16845;48.670;9.000;2024-03-08T10:49:03;94874.19;;;8.04
30001;BMP280;16845;48.670;9.000;2024-03-08T10:51:34;94873.00;;;8.69
30001;BMP280;16845;48.670;9.000;2024-03-08T10:54:02;94859.88;;;9.13
30001;BMP280;16845;48.670;9.000;2024-03-08T10:56:29;94859.03;;;9.13
30001;BMP280;16845;48.670;9.000;2024-03-08T10:58:56;94861.31;;;9.43
30001;BMP280;16845;48.670;9.000;2024-03-08T11:01:23;94865.31;;;9.24
30001;BMP280;16845;48.670;9.000;2024-03-08T11:03:49;94857.13;;;10.54
30001;BMP280;16845;48.670;9.000;2024-03-08T11:06:17;94849.91;;;11.08
30001;BMP280;16845;48.670;9.000;2024-03-08T11:08:46;94851.47;;;11.30
30001;BMP280;16845;48.670;9.000;2024-03-08T11:11:28;94848.13;;;9.61
30001;BMP280;16845;48.670;9.000;2024-03-08T11:14:00;94854.78;;;9.62
30001;BMP280;16845;48.670;9.000;2024-03-08T11:16:37;94854.13;;;9.80
30001;BMP280;16845;48.670;9.000;2024-03-08T11:19:06;94851.25;;;10.55
30001;BMP280;16845;48.670;9.000;2024-03-08T11:21:33;94841.06;;;11.19
30001;BMP280;16845;48.670;9.000;2024-03-08T11:24:02;94837.72;;;10.99
30001;BMP280;16845;48.670;9.000;2024-03-08T11:26:29;94837.53;;;10.22
30001;BMP280;16845;48.670;9.000;2024-03-08T11:29:35;94829.75;;;10.69
30001;BMP280;16845;48.670;9.000;2024-03-08T11:32:08;94828.25;;;11.05
30001;BMP280;16845;48.670;9.000;2024-03-08T11:34:35;94826.50;;;11.66
30001;BMP280;16845;48.670;9.000;2024-03-08T11:37:04;94822.22;;;12.04
30001;BMP280;16845;48.670;9.000;2024-03-08T11:39:32;94819.91;;;11.81
30001;BMP280;16845;48.670;9.000;2024-03-08T11:41:58;94807.47;;;11.22
30001;BMP280;16845;48.670;9.000;2024-03-08T11:44:26;94814.00;;;10.66
30001;BMP280;16845;48.670;9.000;2024-03-08T11:46:53;94812.75;;;10.96
30001;BMP280;16845;48.670;9.000;2024-03-08T11:49:20;94799.53;;;11.31
30001;BMP280;16845;48.670;9.000;2024-03-08T11:51:47;94811.97;;;11.52
30001;BMP280;16845;48.670;9.000;2024-03-08T11:54:17;94807.69;;;10.77
30001;BMP280;16845;48.670;9.000;2024-03-08T11:56:45;94800.50;;;12.20
30001;BMP280;16845;48.670;9.000;2024-03-08T11:59:12;94787.78;;;13.58
30001;BMP280;16845;48.670;9.000;2024-03-08T12:01:38;94779.72;;;13.82
30001;BMP280;16845;48.670;9.000;2024-03-08T12:04:05;94779.59;;;13.70
30001;BMP280;16845;48.670;9.000;2024-03-08T12:06:37;94759.81;;;14.24
30001;BMP280;16845;48.670;9.000;2024-03-08T12:09:04;94757.53;;;15.22
30001;BMP280;16845;48.670;9.000;2024-03-08T12:11:30;94771.03;;;14.03
30001;BMP280;16845;48.670;9.000;2024-03-08T12:14:01;94764.91;;;14.07
30001;BMP280;16845;48.670;9.000;2024-03-08T12:16:31;94751.47;;;15.80
30001;BMP280;16845;48.670;9.000;2024-03-08T12:18:57;94753.19;;;15.24
30001;BMP280;16845;48.670;9.000;2024-03-08T12:21:26;94744.00;;;15.23
30001;BMP280;16845;48.670;9.000;2024-03-08T12:24:03;94738.09;;;17.71
30001;BMP280;16845;48.670;9.000;2024-03-08T12:26:30;94728.56;;;17.12
30001;BMP280;16845;48.670;9.000;2024-03-08T12:29:17;94731.78;;;16.89
30001;BMP280;16845;48.670;9.000;2024-03-08T12:31:44;94742.25;;;14.95
30001;BMP280;16845;48.670;9.000;2024-03-08T12:34:10;94746.53;;;15.37
30001;BMP280;16845;48.670;9.000;2024-03-08T12:36:37;94728.00;;;18.18
30001;BMP280;16845;48.670;9.000;2024-03-08T12:39:06;94721.75;;;18.69
30001;BMP280;16845;48.670;9.000;2024-03-08T12:41:41;94716.66;;;20.56
30001;BMP280;16845;48.670;9.000;2024-03-08T12:44:08;94714.84;;;21.70
30001;BMP280;16845;48.670;9.000;2024-03-08T12:46:36;94706.69;;;21.05
30001;BMP280;16845;48.670;9.000;2024-03-08T12:49:04;94703.66;;;21.41
30001;BMP280;16845;48.670;9.000;2024-03-08T12:51:31;94692.91;;;21.07
30001;BMP280;16845;48.670;9.000;2024-03-08T12:53:58;94698.38;;;20.19
30001;BMP280;16845;48.670;9.000;2024-03-08T12:56:29;94685.28;;;23.11
30001;BMP280;16845;48.670;9.000;2024-03-08T12:58:56;94684.31;;;23.02
30001;BMP280;16845;48.670;9.000;2024-03-08T13:01:23;94677.97;;;23.98
30001;BMP280;16845;48.670;9.000;2024-03-08T13:03:51;94674.25;;;25.99
30001;BMP280;16845;48.670;9.000;2024-03-08T13:06:17;94666.94;;;25.02
30001;BMP280;16845;48.670;9.000;2024-03-08T13:08:44;94664.47;;;23.33
30001;BMP280;16845;48.670;9.000;2024-03-08T13:11:11;94655.59;;;25.56
30001;BMP280;16845;48.670;9.000;2024-03-08T13:13:40;94649.97;;;25.27
30001;BMP280;16845;48.670;9.000;2024-03-08T13:16:07;94653.25;;;24.94
30001;BMP280;16845;48.670;9.000;2024-03-08T13:18:33;94644.59;;;23.54
30001;BMP280;16845;48.670;9.000;2024-03-08T13:21:01;94637.53;;;24.97
30001;BMP280;16845;48.670;9.000;2024-03-08T13:23:30;94645.00;;;23.03
30001;BMP280;16845;48.670;9.000;2024-03-08T13:25:57;94637.66;;;23.73
30001;BMP280;16845;48.670;9.000;2024-03-08T13:28:24;94625.22;;;25.51
30001;BMP280;16845;48.670;9.000;2024-03-08T13:30:54;94642.47;;;24.21
30001;BMP280;16845;48.670;9.000;2024-03-08T13:33:25;94637.31;;;23.22
30001;BMP280;16845;48.670;9.000;2024-03-08T13:35:52;94647.19;;;22.22
30001;BMP280;16845;48.670;9.000;2024-03-08T13:38:20;94629.44;;;24.49
30001;BMP280;16845;48.670;9.000;2024-03-08T13:40:46;94618.97;;;25.20
30001;BMP280;16845;48.670;9.000;2024-03-08T13:43:13;94618.03;;;23.28
30001;BMP280;16845;48.670;9.000;2024-03-08T13:45:40;94614.06;;;24.14
30001;BMP280;16845;48.670;9.000;2024-03-08T13:48:06;94610.59;;;23.61
30001;BMP280;16845;48.670;9.000;2024-03-08T13:50:35;94599.44;;;24.59
30001;BMP280;16845;48.670;9.000;2024-03-08T13:53:02;94616.03;;;20.50
30001;BMP280;16845;48.670;9.000;2024-03-08T13:55:31;94614.00;;;20.54
30001;BMP280;16845;48.670;9.000;2024-03-08T13:57:58;94593.06;;;23.39
30001;BMP280;16845;48.670;9.000;2024-03-08T14:00:25;94615.28;;;19.65
30001;BMP280;16845;48.670;9.000;2024-03-08T14:02:51;94614.66;;;19.83
30001;BMP280;16845;48.670;9.000;2024-03-08T14:08:07;94609.59;;;17.47
30001;BMP280;16845;48.670;9.000;2024-03-08T14:10:57;94610.19;;;18.66
30001;BMP280;16845;48.670;9.000;2024-03-08T14:13:36;94597.53;;;20.37
30001;BMP280;16845;48.670;9.000;2024-03-08T14:16:23;94604.63;;;17.33
30001;BMP280;16845;48.670;9.000;2024-03-08T14:18:50;94605.22;;;19.52
30001;BMP280;16845;48.670;9.000;2024-03-08T14:21:16;94593.13;;;17.99
30001;BMP280;16845;48.670;9.000;2024-03-08T14:23:43;94592.19;;;19.13
30001;BMP280;16845;48.670;9.000;2024-03-08T14:26:11;94575.25;;;21.89
30001;BMP280;16845;48.670;9.000;2024-03-08T14:28:39;94592.88;;;19.04
30001;BMP280;16845;48.670;9.000;2024-03-08T14:31:11;94582.56;;;17.82
30001;BMP280;16845;48.670;9.000;2024-03-08T14:33:51;94590.31;;;16.71
30001;BMP280;16845;48.670;9.000;2024-03-08T14:36:39;94577.59;;;17.21
30001;BMP280;16845;48.670;9.000;2024-03-08T14:39:05;94572.78;;;17.41